createdAt,value
2019-05-01T00:00:23.467Z,4.55
2019-05-01T00:02:50.253Z,4.56
2019-05-01T00:05:17.305Z,4.54
2019-05-01T00:07:44.025Z,4.51
2019-05-01T00:10:13.029Z,4.52
2019-05-01T00:12:39.872Z,4.52
2019-05-01T00:15:07.593Z,4.49
2019-05-01T00:17:34.493Z,4.51
2019-05-01T00:20:01.556Z,4.52
2019-05-01T00:22:28.276Z,4.55
2019-05-01T00:24:55.074Z,4.52
2019-05-01T00:27:21.812Z,4.51
2019-05-01T00:29:48.685Z,4.47
2019-05-01T00:32:15.421Z,4.47
2019-05-01T00:34:42.137Z,4.48
2019-05-01T00:37:08.916Z,4.48
2019-05-01T00:39:35.642Z,4.44
2019-05-01T00:42:02.541Z,4.47
2019-05-01T00:44:29.315Z,4.44
2019-05-01T00:46:56.037Z,4.42
2019-05-01T00:49:22.818Z,4.40
2019-05-01T00:51:49.583Z,4.39
2019-05-01T00:54:16.295Z,4.36
2019-05-01T00:56:43.194Z,4.35
2019-05-01T00:59:10.060Z,4.29
2019-05-01T01:01:36.784Z,4.31
2019-05-01T01:04:03.624Z,4.27
2019-05-01T01:06:30.478Z,4.22
2019-05-01T01:08:57.230Z,4.23
2019-05-01T01:11:24.000Z,4.29
2019-05-01T01:13:50.780Z,4.29
2019-05-01T01:16:17.578Z,4.29
2019-05-01T01:18:44.525Z,4.30
2019-05-01T01:21:11.257Z,4.33
2019-05-01T01:23:38.529Z,4.36
2019-05-01T01:26:05.271Z,4.34
2019-05-01T01:28:32.013Z,4.36
2019-05-01T01:30:58.937Z,4.41
2019-05-01T01:33:25.772Z,4.45
2019-05-01T01:35:52.624Z,4.46
2019-05-01T01:38:19.366Z,4.46
2019-05-01T01:40:46.623Z,4.49
2019-05-01T01:43:13.723Z,4.45
2019-05-01T01:45:40.545Z,4.48
2019-05-01T01:48:07.412Z,4.50
2019-05-01T01:50:34.721Z,4.50
2019-05-01T01:53:01.758Z,4.46
2019-05-01T01:55:28.804Z,4.45
2019-05-01T01:57:56.259Z,4.40
2019-05-01T02:00:23.002Z,4.35
2019-05-01T02:02:49.893Z,4.32
2019-05-01T02:05:16.742Z,4.27
2019-05-01T02:07:43.821Z,4.24
2019-05-01T02:10:12.201Z,4.20
2019-05-01T02:12:40.220Z,4.16
2019-05-01T02:15:07.809Z,4.18
2019-05-01T02:17:34.661Z,4.11
2019-05-01T02:20:01.981Z,4.04
2019-05-01T02:22:28.789Z,4.00
2019-05-01T02:24:55.541Z,3.93
2019-05-01T02:27:22.951Z,3.92
2019-05-01T02:29:50.350Z,3.90
2019-05-01T02:32:37.206Z,3.92
2019-05-01T02:35:06.718Z,3.95
2019-05-01T02:37:34.689Z,3.93
2019-05-01T02:40:06.255Z,3.84
2019-05-01T02:42:38.183Z,3.82
2019-05-01T02:45:04.980Z,3.78
2019-05-01T02:47:35.950Z,3.73
2019-05-01T02:50:07.652Z,3.72
2019-05-01T02:52:38.675Z,3.72
2019-05-01T02:55:08.641Z,3.70
2019-05-01T02:57:39.147Z,3.69
2019-05-01T03:00:06.702Z,3.65
2019-05-01T03:02:35.722Z,3.64
2019-05-01T03:05:03.008Z,3.65
2019-05-01T03:07:34.159Z,3.66
2019-05-01T03:10:03.410Z,3.67
2019-05-01T03:12:34.164Z,3.59
2019-05-01T03:15:03.969Z,3.61
2019-05-01T03:17:34.300Z,3.59
2019-05-01T03:20:01.970Z,3.56
2019-05-01T03:22:29.154Z,3.58
2019-05-01T03:24:56.143Z,3.54
2019-05-01T03:27:22.979Z,3.51
2019-05-01T03:29:49.827Z,3.47
2019-05-01T03:32:19.577Z,3.49
2019-05-01T03:34:51.868Z,3.49
2019-05-01T03:37:14.370Z,3.46
2019-05-01T03:39:41.300Z,3.40
2019-05-01T03:42:08.190Z,3.37
2019-05-01T03:44:35.050Z,3.34
2019-05-01T03:47:02.069Z,3.32
2019-05-01T03:49:28.971Z,3.32
2019-05-01T03:51:56.695Z,3.30
2019-05-01T03:54:23.739Z,3.26
2019-05-01T03:56:50.989Z,3.21
2019-05-01T03:59:18.525Z,3.20
2019-05-01T04:01:45.598Z,3.13
2019-05-01T04:04:12.959Z,3.10
2019-05-01T04:06:39.681Z,3.04
2019-05-01T04:09:07.032Z,3.06
2019-05-01T04:11:34.956Z,3.05
2019-05-01T04:14:03.361Z,2.96
2019-05-01T04:16:32.779Z,2.99
2019-05-01T04:19:00.102Z,2.98
2019-05-01T04:21:27.598Z,2.95
2019-05-01T04:23:56.060Z,2.98
2019-05-01T04:26:22.818Z,2.96
2019-05-01T04:28:49.747Z,2.99
2019-05-01T04:31:17.054Z,3.02
2019-05-01T04:33:44.820Z,3.05
2019-05-01T04:36:12.995Z,3.07
2019-05-01T04:38:39.808Z,3.05
2019-05-01T04:41:07.155Z,3.04
2019-05-01T04:43:34.084Z,2.99
2019-05-01T04:46:01.160Z,2.96
2019-05-01T04:48:27.942Z,2.93
2019-05-01T04:50:55.472Z,2.91
2019-05-01T04:53:24.408Z,2.90
2019-05-01T04:55:52.262Z,2.93
2019-05-01T04:58:19.401Z,2.94
2019-05-01T05:00:46.210Z,2.92
2019-05-01T05:03:13.189Z,2.89
2019-05-01T05:05:40.316Z,2.86
2019-05-01T05:08:07.133Z,2.85
2019-05-01T05:10:34.275Z,2.81
2019-05-01T05:13:01.170Z,2.82
2019-05-01T05:15:28.369Z,2.84
2019-05-01T05:17:55.231Z,2.83
2019-05-01T05:20:22.853Z,2.80
2019-05-01T05:22:49.894Z,2.80
2019-05-01T05:25:16.800Z,2.81
2019-05-01T05:27:44.555Z,2.79
2019-05-01T05:30:11.479Z,2.75
2019-05-01T05:32:41.881Z,2.77
2019-05-01T05:35:11.411Z,2.77
2019-05-01T05:37:40.189Z,2.73
2019-05-01T05:40:07.114Z,2.72
2019-05-01T05:42:34.151Z,2.72
2019-05-01T05:45:02.324Z,2.78
2019-05-01T05:47:29.973Z,2.81
2019-05-01T05:49:59.011Z,2.87
2019-05-01T05:52:28.912Z,2.97
2019-05-01T05:54:59.952Z,3.06
2019-05-01T05:57:36.751Z,3.18
2019-05-01T06:00:05.890Z,3.31
2019-05-01T06:02:35.277Z,3.40
2019-05-01T06:05:03.477Z,3.47
2019-05-01T06:07:34.557Z,3.56
2019-05-01T06:10:02.411Z,3.67
2019-05-01T06:12:30.422Z,3.75
2019-05-01T06:15:02.482Z,3.81
2019-05-01T06:17:31.081Z,3.90
2019-05-01T06:19:58.447Z,4.01
2019-05-01T06:22:25.824Z,4.12
2019-05-01T06:24:53.733Z,4.21
2019-05-01T06:27:21.128Z,4.36
2019-05-01T06:29:48.870Z,4.49
2019-05-01T06:32:15.942Z,4.59
2019-05-01T06:34:43.100Z,4.72
2019-05-01T06:37:10.213Z,4.81
2019-05-01T06:39:37.920Z,4.93
2019-05-01T06:42:05.251Z,5.03
2019-05-01T06:44:33.571Z,5.12
2019-05-01T06:47:03.310Z,5.22
2019-05-01T06:49:34.566Z,5.31
2019-05-01T06:52:02.792Z,5.42
2019-05-01T06:54:33.551Z,5.54
2019-05-01T06:57:02.994Z,5.65
2019-05-01T06:59:33.511Z,5.76
2019-05-01T07:02:00.632Z,5.87
2019-05-01T07:04:32.409Z,5.96
2019-05-01T07:07:06.851Z,6.08
2019-05-01T07:09:33.841Z,6.15
2019-05-01T07:12:03.242Z,6.26
2019-05-01T07:14:30.662Z,6.35
2019-05-01T07:16:57.940Z,6.43
2019-05-01T07:19:25.225Z,6.46
2019-05-01T07:21:52.480Z,6.54
2019-05-01T07:24:24.085Z,6.69
2019-05-01T07:26:50.850Z,6.79
2019-05-01T07:29:17.882Z,6.90
2019-05-01T07:31:44.786Z,7.00
2019-05-01T07:34:16.614Z,7.09
2019-05-01T07:36:40.263Z,7.15
2019-05-01T07:39:09.908Z,7.29
2019-05-01T07:41:37.704Z,7.36
2019-05-01T07:44:05.866Z,7.47
2019-05-01T07:46:33.296Z,7.44
2019-05-01T07:49:01.411Z,7.52
2019-05-01T07:51:28.413Z,7.56
2019-05-01T07:53:59.056Z,7.64
2019-05-01T07:56:28.022Z,7.76
2019-05-01T07:58:55.108Z,7.82
2019-05-01T08:01:23.403Z,7.88
2019-05-01T08:03:50.163Z,7.99
2019-05-01T08:06:21.438Z,8.12
2019-05-01T08:08:45.632Z,8.23
2019-05-01T08:11:12.384Z,8.32
2019-05-01T08:13:39.125Z,8.44
2019-05-01T08:16:07.006Z,8.52
2019-05-01T08:18:36.156Z,8.59
2019-05-01T08:21:03.334Z,8.69
2019-05-01T08:23:30.227Z,8.75
2019-05-01T08:25:56.981Z,8.79
2019-05-01T08:28:27.596Z,8.82
2019-05-01T08:30:53.066Z,8.90
2019-05-01T08:33:20.805Z,8.95
2019-05-01T08:35:47.561Z,9.05
2019-05-01T08:38:14.438Z,9.16
2019-05-01T08:40:41.196Z,9.20
2019-05-01T08:43:07.930Z,9.28
2019-05-01T08:45:35.830Z,9.29
2019-05-01T08:48:03.650Z,9.36
2019-05-01T08:50:30.472Z,9.47
2019-05-01T08:52:57.253Z,9.58
2019-05-01T08:55:23.999Z,9.61
2019-05-01T08:57:50.727Z,9.63
2019-05-01T09:00:18.582Z,9.61
2019-05-01T09:02:45.326Z,9.63
2019-05-01T09:05:27.533Z,9.68
2019-05-01T09:07:40.932Z,9.79
2019-05-01T09:10:09.213Z,9.87
2019-05-01T09:12:36.250Z,9.93
2019-05-01T09:15:12.464Z,9.93
2019-05-01T09:17:35.825Z,9.99
2019-05-01T09:20:03.439Z,10.04
2019-05-01T09:22:30.196Z,10.09
2019-05-01T09:25:00.054Z,10.14
2019-05-01T09:27:29.482Z,10.24
2019-05-01T09:29:55.564Z,10.34
2019-05-01T09:32:22.418Z,10.43
2019-05-01T09:34:49.309Z,10.54
2019-05-01T09:37:16.070Z,10.61
2019-05-01T09:39:42.793Z,10.58
2019-05-01T09:42:09.619Z,10.70
2019-05-01T09:44:36.439Z,10.72
2019-05-01T09:47:03.372Z,10.74
2019-05-01T09:49:30.156Z,10.78
2019-05-01T09:51:56.874Z,10.77
2019-05-01T09:54:23.599Z,10.89
2019-05-01T09:56:50.495Z,10.97
2019-05-01T09:59:18.945Z,11.04
2019-05-01T10:01:45.777Z,11.03
2019-05-01T10:04:12.587Z,11.11
2019-05-01T10:06:39.312Z,11.15
2019-05-01T10:09:07.290Z,11.25
2019-05-01T10:11:36.007Z,11.35
2019-05-01T10:14:05.130Z,11.43
2019-05-01T10:16:31.863Z,11.48
2019-05-01T10:18:58.666Z,11.57
2019-05-01T10:21:27.290Z,11.59
2019-05-01T10:23:53.924Z,11.71
2019-05-01T10:26:23.948Z,11.78
2019-05-01T10:28:49.986Z,11.81
2019-05-01T10:31:17.851Z,11.86
2019-05-01T10:33:44.612Z,12.00
2019-05-01T10:36:17.740Z,12.12
2019-05-01T10:38:44.791Z,12.26
2019-05-01T10:41:09.151Z,12.30
2019-05-01T10:43:37.145Z,12.44
2019-05-01T10:46:03.916Z,12.62
2019-05-01T10:48:30.767Z,12.70
2019-05-01T10:50:57.528Z,12.86
2019-05-01T10:53:24.456Z,12.96
2019-05-01T10:55:51.228Z,13.06
2019-05-01T10:58:20.152Z,13.22
2019-05-01T11:00:46.664Z,13.31
2019-05-01T11:03:13.393Z,13.50
2019-05-01T11:05:40.148Z,13.65
2019-05-01T11:08:06.882Z,13.79
2019-05-01T11:10:33.636Z,14.06
2019-05-01T11:13:00.475Z,14.10
2019-05-01T11:15:27.275Z,14.25
2019-05-01T11:17:54.014Z,14.42
2019-05-01T11:20:20.765Z,14.74
2019-05-01T11:22:47.559Z,14.91
2019-05-01T11:25:14.598Z,15.14
2019-05-01T11:27:41.398Z,15.31
2019-05-01T11:30:08.625Z,15.49
2019-05-01T11:32:35.390Z,15.69
2019-05-01T11:35:04.560Z,15.89
2019-05-01T11:37:31.305Z,16.05
2019-05-01T11:39:58.018Z,16.21
2019-05-01T11:42:24.865Z,16.35
2019-05-01T11:44:51.650Z,16.55
2019-05-01T11:47:18.463Z,16.74
2019-05-01T11:49:45.287Z,17.01
2019-05-01T11:52:12.035Z,17.17
2019-05-01T11:54:38.752Z,17.38
2019-05-01T11:57:05.570Z,17.54
2019-05-01T11:59:32.865Z,17.67
2019-05-01T12:02:02.390Z,17.87
2019-05-01T12:04:28.602Z,18.04
2019-05-01T12:06:55.331Z,18.22
2019-05-01T12:09:22.079Z,18.33
2019-05-01T12:11:48.900Z,18.37
2019-05-01T12:14:15.628Z,18.50
2019-05-01T12:16:42.381Z,18.54
2019-05-01T12:19:09.148Z,18.62
2019-05-01T12:21:35.888Z,18.79
2019-05-01T12:24:02.848Z,18.83
2019-05-01T12:26:29.611Z,18.85
2019-05-01T12:28:56.367Z,18.91
2019-05-01T12:31:23.173Z,19.04
2019-05-01T12:33:49.903Z,19.10
2019-05-01T12:36:16.641Z,19.13
2019-05-01T12:38:43.471Z,19.23
2019-05-01T12:41:10.187Z,19.40
2019-05-01T12:43:37.129Z,19.51
2019-05-01T12:46:03.874Z,19.70
2019-05-01T12:48:30.595Z,19.71
2019-05-01T12:50:57.485Z,19.79
2019-05-01T12:53:24.241Z,19.83
2019-05-01T12:55:50.989Z,19.93
2019-05-01T12:58:17.772Z,19.92
2019-05-01T13:00:47.337Z,20.02
2019-05-01T13:03:14.094Z,20.11
2019-05-01T13:05:40.960Z,20.18
2019-05-01T13:08:07.695Z,20.33
2019-05-01T13:10:34.548Z,20.48
2019-05-01T13:13:01.329Z,20.63
2019-05-01T13:15:28.074Z,20.63
2019-05-01T13:17:54.857Z,20.59
2019-05-01T13:20:21.606Z,20.72
2019-05-01T13:22:48.393Z,20.82
2019-05-01T13:25:15.169Z,20.81
2019-05-01T13:27:41.898Z,20.77
2019-05-01T13:30:15.163Z,20.81
2019-05-01T13:32:41.884Z,20.88
2019-05-01T13:35:08.947Z,20.73
2019-05-01T13:37:35.805Z,20.45
2019-05-01T13:40:07.552Z,20.24
2019-05-01T13:42:34.664Z,20.09
2019-05-01T13:45:01.470Z,20.02
2019-05-01T13:47:28.211Z,19.86
2019-05-01T13:49:55.024Z,19.71
2019-05-01T13:52:21.844Z,19.56
2019-05-01T13:54:48.601Z,19.32
2019-05-01T13:57:15.381Z,19.18
2019-05-01T13:59:42.147Z,19.35
2019-05-01T14:02:08.866Z,19.63
2019-05-01T14:04:35.636Z,19.92
2019-05-01T14:07:15.565Z,20.05
2019-05-01T14:09:31.076Z,20.23
2019-05-01T14:11:57.819Z,20.31
2019-05-01T14:14:24.579Z,20.48
2019-05-01T14:16:51.374Z,20.79
2019-05-01T14:19:18.157Z,21.17
2019-05-01T14:21:44.913Z,21.30
2019-05-01T14:24:20.895Z,21.20
2019-05-01T14:26:47.666Z,21.20
2019-05-01T14:29:14.402Z,21.38
2019-05-01T14:31:41.163Z,21.49
2019-05-01T14:34:07.940Z,21.57
2019-05-01T14:36:34.664Z,21.61
2019-05-01T14:39:01.403Z,21.57
2019-05-01T14:41:28.251Z,21.68
2019-05-01T14:43:54.993Z,21.73
2019-05-01T14:46:21.794Z,21.38
2019-05-01T14:48:48.652Z,21.28
2019-05-01T14:51:16.247Z,21.31
2019-05-01T14:53:43.075Z,21.27
2019-05-01T14:56:09.938Z,21.35
2019-05-01T14:58:36.684Z,21.47
2019-05-01T15:01:03.563Z,21.24
2019-05-01T15:03:36.754Z,21.07
2019-05-01T15:06:09.533Z,20.75
2019-05-01T15:08:46.054Z,20.50
2019-05-01T15:11:19.551Z,20.35
2019-05-01T15:14:00.438Z,20.13
2019-05-01T15:16:32.946Z,20.18
2019-05-01T15:19:02.019Z,20.10
2019-05-01T15:21:28.738Z,19.98
2019-05-01T15:23:57.235Z,20.06
2019-05-01T15:26:25.269Z,20.20
2019-05-01T15:28:52.025Z,20.12
2019-05-01T15:31:18.789Z,19.75
2019-05-01T15:33:45.870Z,19.70
2019-05-01T15:36:12.551Z,19.66
2019-05-01T15:38:39.452Z,19.72
2019-05-01T15:41:06.212Z,19.93
2019-05-01T15:43:32.956Z,19.93
2019-05-01T15:45:59.801Z,20.06
2019-05-01T15:48:26.516Z,20.06
2019-05-01T15:50:53.262Z,19.93
2019-05-01T15:53:20.149Z,19.83
2019-05-01T15:55:46.877Z,19.37
2019-05-01T15:58:13.588Z,19.04
2019-05-01T16:00:40.663Z,19.14
2019-05-01T16:03:07.432Z,19.38
2019-05-01T16:05:34.166Z,19.55
2019-05-01T16:08:09.571Z,19.75
2019-05-01T16:10:29.558Z,19.59
2019-05-01T16:12:56.290Z,19.14
2019-05-01T16:15:23.149Z,18.94
2019-05-01T16:17:49.883Z,18.75
2019-05-01T16:20:17.128Z,18.52
2019-05-01T16:22:44.146Z,18.15
2019-05-01T16:25:11.318Z,17.86
2019-05-01T16:27:38.221Z,17.71
2019-05-01T16:30:06.079Z,17.41
2019-05-01T16:32:32.834Z,17.22
2019-05-01T16:34:59.623Z,16.91
2019-05-01T16:37:26.638Z,16.65
2019-05-01T16:39:53.391Z,16.38
2019-05-01T16:42:20.379Z,16.01
2019-05-01T16:44:47.112Z,15.88
2019-05-01T16:47:13.936Z,15.69
2019-05-01T16:49:40.873Z,15.56
2019-05-01T16:52:07.733Z,15.47
2019-05-01T16:54:35.224Z,15.37
2019-05-01T16:57:02.726Z,15.28
2019-05-01T16:59:33.189Z,15.14
2019-05-01T17:02:00.403Z,15.09
2019-05-01T17:04:27.134Z,14.93
2019-05-01T17:06:53.946Z,14.74
2019-05-01T17:09:20.769Z,14.54
2019-05-01T17:11:47.467Z,14.42
2019-05-01T17:14:14.433Z,14.27
2019-05-01T17:16:41.138Z,14.13
2019-05-01T17:19:09.233Z,14.00
2019-05-01T17:21:36.020Z,13.92
2019-05-01T17:24:05.298Z,13.76
2019-05-01T17:26:32.062Z,13.49
2019-05-01T17:28:58.862Z,13.34
2019-05-01T17:31:25.568Z,13.16
2019-05-01T17:33:55.485Z,12.98
2019-05-01T17:36:20.923Z,12.84
2019-05-01T17:38:49.609Z,12.76
2019-05-01T17:41:16.585Z,12.63
2019-05-01T17:43:44.686Z,12.45
2019-05-01T17:46:12.088Z,12.29
2019-05-01T17:48:38.991Z,12.29
2019-05-01T17:51:05.749Z,12.11
2019-05-01T17:53:32.641Z,12.10
2019-05-01T17:55:59.394Z,11.99
2019-05-01T17:58:26.101Z,11.85
2019-05-01T18:00:52.966Z,11.77
2019-05-01T18:03:19.689Z,11.71
2019-05-01T18:05:46.417Z,11.60
2019-05-01T18:08:13.168Z,11.46
2019-05-01T18:10:39.916Z,11.29
2019-05-01T18:13:06.800Z,11.16
2019-05-01T18:15:33.525Z,11.02
2019-05-01T18:18:00.542Z,10.92
2019-05-01T18:20:27.505Z,10.80
2019-05-01T18:22:54.259Z,10.65
2019-05-01T18:25:20.999Z,10.51
2019-05-01T18:27:49.920Z,10.44
2019-05-01T18:30:20.510Z,10.36
2019-05-01T18:32:47.586Z,10.26
2019-05-01T18:35:16.157Z,10.21
2019-05-01T18:37:43.154Z,10.05
2019-05-01T18:40:10.330Z,9.96
2019-05-01T18:42:37.210Z,9.84
2019-05-01T18:45:09.533Z,9.71
2019-05-01T18:47:35.842Z,9.62
2019-05-01T18:50:05.247Z,9.55
2019-05-01T18:52:32.392Z,9.43
2019-05-01T18:54:59.131Z,9.36
2019-05-01T18:57:25.952Z,9.29
2019-05-01T18:59:52.802Z,9.19
2019-05-01T19:02:20.478Z,9.14
2019-05-01T19:04:48.040Z,9.03
2019-05-01T19:07:14.871Z,8.98
2019-05-01T19:09:41.601Z,8.90
2019-05-01T19:12:08.365Z,8.86
2019-05-01T19:14:35.127Z,8.74
2019-05-01T19:17:01.852Z,8.71
2019-05-01T19:19:28.760Z,8.65
2019-05-01T19:21:55.440Z,8.63
2019-05-01T19:24:22.302Z,8.57
2019-05-01T19:26:49.574Z,8.51
2019-05-01T19:29:16.632Z,8.50
2019-05-01T19:31:43.891Z,8.48
2019-05-01T19:34:10.944Z,8.42
2019-05-01T19:36:40.388Z,8.42
2019-05-01T19:39:11.435Z,8.38
2019-05-01T19:41:36.056Z,8.24
2019-05-01T19:44:03.585Z,8.20
2019-05-01T19:46:30.836Z,8.17
2019-05-01T19:48:57.974Z,8.10
2019-05-01T19:51:26.044Z,8.02
2019-05-01T19:53:53.684Z,7.98
2019-05-01T19:56:21.440Z,7.94
2019-05-01T19:58:49.799Z,7.92
2019-05-01T20:01:17.030Z,7.82
2019-05-01T20:03:44.202Z,7.72
2019-05-01T20:06:11.356Z,7.64
2019-05-01T20:08:38.595Z,7.60
2019-05-01T20:11:05.830Z,7.59
2019-05-01T20:13:32.958Z,7.55
2019-05-01T20:16:00.183Z,7.46
2019-05-01T20:18:26.977Z,7.44
2019-05-01T20:20:54.136Z,7.38
2019-05-01T20:23:25.927Z,7.33
2019-05-01T20:25:50.957Z,7.25
2019-05-01T20:28:20.097Z,7.19
2019-05-01T20:30:49.537Z,7.18
2019-05-01T20:33:15.958Z,7.17
2019-05-01T20:35:42.680Z,7.07
2019-05-01T20:38:09.573Z,7.02
2019-05-01T20:40:36.291Z,6.99
2019-05-01T20:43:06.013Z,6.93
2019-05-01T20:45:32.331Z,6.89
2019-05-01T20:47:59.064Z,6.87
2019-05-01T20:50:25.885Z,6.78
2019-05-01T20:52:52.816Z,6.71
2019-05-01T20:55:19.516Z,6.66
2019-05-01T20:57:46.246Z,6.62
2019-05-01T21:00:16.479Z,6.62
2019-05-01T21:02:43.122Z,6.59
2019-05-01T21:05:10.624Z,6.57
2019-05-01T21:07:37.499Z,6.55
2019-05-01T21:10:05.627Z,6.48
2019-05-01T21:12:32.374Z,6.48
2019-05-01T21:14:59.234Z,6.49
2019-05-01T21:17:25.963Z,6.46
2019-05-01T21:19:54.485Z,6.42
2019-05-01T21:22:23.304Z,6.35
2019-05-01T21:24:49.785Z,6.38
2019-05-01T21:27:16.680Z,6.32
2019-05-01T21:29:44.494Z,6.27
2019-05-01T21:32:13.469Z,6.22
2019-05-01T21:34:40.012Z,6.22
2019-05-01T21:37:06.730Z,6.21
2019-05-01T21:39:33.546Z,6.19
2019-05-01T21:42:04.745Z,6.14
2019-05-01T21:44:28.969Z,6.07
2019-05-01T21:46:55.706Z,6.04
2019-05-01T21:49:22.920Z,6.04
2019-05-01T21:51:49.841Z,6.03
2019-05-01T21:54:20.633Z,6.05
2019-05-01T21:56:45.243Z,6.04
2019-05-01T21:59:12.137Z,6.02
2019-05-01T22:01:39.039Z,5.99
2019-05-01T22:04:05.781Z,6.00
2019-05-01T22:06:32.619Z,5.97
2019-05-01T22:08:59.396Z,5.92
2019-05-01T22:11:26.240Z,5.89
2019-05-01T22:13:55.079Z,5.84
2019-05-01T22:16:22.390Z,5.77
2019-05-01T22:18:50.399Z,5.74
2019-05-01T22:21:17.277Z,5.67
2019-05-01T22:23:44.023Z,5.59
2019-05-01T22:26:10.866Z,5.58
2019-05-01T22:28:37.642Z,5.53
2019-05-01T22:31:04.408Z,5.49
2019-05-01T22:33:31.123Z,5.43
2019-05-01T22:35:57.885Z,5.40
2019-05-01T22:38:24.621Z,5.38
2019-05-01T22:41:04.777Z,5.36
2019-05-01T22:43:19.934Z,5.30
2019-05-01T22:45:46.691Z,5.28
2019-05-01T22:48:13.564Z,5.27
2019-05-01T22:50:40.333Z,5.20
2019-05-01T22:53:08.037Z,5.17
2019-05-01T22:55:35.765Z,5.15
2019-05-01T22:58:02.784Z,5.11
2019-05-01T23:00:30.001Z,5.08
2019-05-01T23:03:00.099Z,5.04
2019-05-01T23:05:27.907Z,5.04
2019-05-01T23:07:56.903Z,5.06
2019-05-01T23:10:22.601Z,5.06
2019-05-01T23:12:49.343Z,5.03
2019-05-01T23:15:16.428Z,5.04
2019-05-01T23:17:43.138Z,5.00
2019-05-01T23:20:10.141Z,4.95
2019-05-01T23:22:36.865Z,4.90
2019-05-01T23:25:05.521Z,4.88
2019-05-01T23:27:32.287Z,4.80
2019-05-01T23:29:59.006Z,4.75
2019-05-01T23:32:25.861Z,4.72
2019-05-01T23:34:52.600Z,4.71
2019-05-01T23:37:19.297Z,4.70
2019-05-01T23:39:46.163Z,4.68
2019-05-01T23:42:12.891Z,4.66
2019-05-01T23:44:42.922Z,4.62
2019-05-01T23:47:08.326Z,4.65
2019-05-01T23:49:35.078Z,4.63
2019-05-01T23:52:03.330Z,4.60
2019-05-01T23:54:30.396Z,4.59
2019-05-01T23:56:57.146Z,4.57
2019-05-01T23:59:23.936Z,4.54
